Hallock, MN

12:57 AM CDT on March 24, 2017 (GMT -0500)
Hallock Municipal | | Change Station
Active Advisory: Flood Warning

Elev 817 ft 48.75 °N, 96.94 °W | Updated 3 minutes ago

Mostly Cloudy
Mostly Cloudy
34 °F
Feels Like 26 °F
N
10
Wind Variable Wind from North

Today
High -- | Low -- °F
--% Chance of Precip.
Yesterday
High -- | Low -- °F
Precip. -- in
Pressure 29.92 in
Visibility 7.0 miles
Clouds Clear
Windchill 26 °F
Dew Point 32 °F
Humidity 93%
Rainfall 0.00 in
Snow Depth Not available.
7:21 AM 7:47 PM
Waning Crescent, 17% visible
METAR KHCO 240554Z AUTO 35009KT 7SM CLR 01/00 A2992 RMK AO2
Pressure 29.92 in
Visibility 7.0 miles
Clouds Clear
Windchill 26 °F
Dew Point 32 °F
Humidity 93%
Rainfall 0.00 in
Snow Depth Not available.
7:21 AM 7:47 PM
Waning Crescent, 17% visible
METAR KHCO 240554Z AUTO 35009KT 7SM CLR 01/00 A2992 RMK AO2

Get Your Daily Forecast Email!

Thanks for signing up!

Be on the lookout for a verification email in your inbox.

You'll start receiving severe weather alerts in your inbox..

×

10-Day Weather Forecast

Almanac

Astronomy

Mar. 24, 2017 Rise Set
Actual Time
Civil Twilight
Nautical Twilight
Astronomical Twilight
Moon
Length of Visible Light
Length of Day
Tomorrow will be .
, % of the Moon is Illuminated

Today's Extremes

State Highs State Lows

Community

WunderPhotos

Upload Photos

1,962,540 photos uploaded!

WunderBlog® & News

Nearby

Air Quality

  Air Quality AQ Index Pollutant
Not available.

Snow Depth

Station Depth Elevation

Earthquake Activity

City Distance Mag. Time & Date
Minimum magnitude displayed is 2.5.

Earthquake Activity

City Distance Mag. Time & Date
Minimum magnitude displayed is 2.5.

Coastal Water Temperatures

Place Temperature

Stations

Nearby Weather Stations

Station Location Temp. Windchill Dew Point Humidity Wind Precip. Elev Updated Type
                   

Watches & Warnings

Flood Warning
Issued: 1:09 PM CDT Mar. 23, 2017 – National Weather Service

The Flood Warning continues for...
* ... Hallock... on the Two Rivers river.
* Until further notice... or until the warning is cancelled.
* At 12:00 PM Thursday the stage was 803.9 feet.
* Minor flooding is occurring and during the next 7 days... minor
flooding is forecast.
* Minor flood stage is 802.0 feet.
* Forecast... the river will rise to a crest near 805.0 feet sometime
Wednesday evening then begin falling.
* Impact statement(s) - at 804.5 feet, backup at reach 2 dike,
cemetery Road at 6th St. S. - Shut storm valve.


Daily 7am CDT/6am CST forecast stage in feet:

date Fri Sat sun Mon Tue Wed Thu
(month/day) 03/24 03/25 03/26 03/27 03/28 03/29 03/30

Two Rivers river
Hallock 804.1 804.1 804.1 804.3 804.6 804.9 805.0


Lat... Lon 4888 9719 4873 9713 4867 9662 4885 9667